createdAt,value
2019-01-16T13:04:50.959Z,17.27
2019-01-16T13:07:37.251Z,16.53
2019-01-16T13:10:18.840Z,16.50
2019-01-16T13:12:58.107Z,14.90
2019-01-16T13:15:32.523Z,15.50
2019-01-16T13:18:02.804Z,13.80
2019-01-16T13:20:33.188Z,14.10
2019-01-16T13:23:04.583Z,12.07
2019-01-16T13:25:35.623Z,12.27
2019-01-16T13:28:06.780Z,10.77
2019-01-16T13:30:38.636Z,10.40
2019-01-16T13:33:10.200Z,9.73
2019-01-16T13:35:40.710Z,10.37
2019-01-16T13:38:11.823Z,10.20
2019-01-16T13:40:43.401Z,10.07
2019-01-16T13:43:14.970Z,10.13
2019-01-16T13:45:46.058Z,9.77
2019-01-16T13:48:17.139Z,10.53
2019-01-16T13:50:47.573Z,10.80
2019-01-16T13:53:18.417Z,10.43
2019-01-16T13:55:49.739Z,10.40
2019-01-16T13:58:21.740Z,9.87
2019-01-16T14:00:52.358Z,10.23
2019-01-16T14:03:25.568Z,10.13
2019-01-16T14:05:56.154Z,8.23
2019-01-16T14:08:26.469Z,8.13
2019-01-16T14:10:57.519Z,8.10
2019-01-16T14:13:28.479Z,8.30
2019-01-16T14:16:01.269Z,8.80
2019-01-16T14:18:31.898Z,8.40
2019-01-16T14:21:01.590Z,7.97
2019-01-16T14:23:32.872Z,7.67
2019-01-16T14:26:03.487Z,7.50
2019-01-16T14:28:34.700Z,6.70
2019-01-16T14:31:06.387Z,7.60
2019-01-16T14:33:37.592Z,7.53
2019-01-16T14:36:08.363Z,7.33
2019-01-16T14:38:39.686Z,9.20
2019-01-16T14:41:11.139Z,9.67
2019-01-16T14:43:41.986Z,9.23
2019-01-16T14:46:13.412Z,9.00
2019-01-16T14:48:44.692Z,9.17
2019-01-16T14:51:15.589Z,9.13
2019-01-16T14:53:46.553Z,9.67
2019-01-16T14:56:17.312Z,10.03
2019-01-16T14:58:48.069Z,9.20
2019-01-16T15:01:19.340Z,8.50
2019-01-16T15:03:50.801Z,9.10
2019-01-16T15:06:23.182Z,8.50
2019-01-16T15:08:54.013Z,7.77
2019-01-16T15:11:24.652Z,7.80
2019-01-16T15:13:54.855Z,7.50
2019-01-16T15:16:25.985Z,7.07
2019-01-16T15:18:57.077Z,6.83
2019-01-16T15:21:27.098Z,6.80
2019-01-16T15:23:58.396Z,5.97
